Time;durP1;ratioP1;P1;durP2;ratioP2;P2;SDS_P1;SDS_P2;PMS_P1;PMS_P2;Temp;Humidity;BMP_temperature;BMP_pressure;BME280_temperature;BME280_humidity;BME280_pressure;Samples;Min_cycle;Max_cycle;Signal;HPM_P1;HPM_P2
2022/10/27 00:00:20;;;;;;;;;3.00;3.00;;;;;15.24;74.70;101771.94;3031846;22;45119;-78
2022/10/27 00:01:31;;;;;;;;;6.00;4.00;;;;;15.27;74.54;101770.94;3043197;22;45369;-78
2022/10/27 00:02:41;;;;;;;;;4.50;4.00;;;;;15.25;74.53;101767.50;3044000;22;45228;-78
2022/10/27 00:03:51;;;;;;;;;6.75;4.50;;;;;15.24;74.76;101774.56;3043959;22;45221;-78
2022/10/27 00:05:02;;;;;;;;;5.00;1.00;;;;;15.24;74.90;101768.41;3044551;22;45254;-78
2022/10/27 00:06:12;;;;;;;;;4.50;3.50;;;;;15.23;74.83;101764.91;3027828;22;46916;-78
2022/10/27 00:07:22;;;;;;;;;7.00;3.00;;;;;15.21;74.97;101768.53;3028132;22;45161;-78
2022/10/27 00:08:34;;;;;;;;;3.25;3.25;;;;;15.23;74.83;101767.56;3032711;22;47035;-78
2022/10/27 00:09:44;;;;;;;;;4.25;3.00;;;;;15.21;74.97;101769.38;3044642;22;45163;-78
2022/10/27 00:11:00;;;;;;;;;2.75;2.75;;;;;15.21;74.83;101769.38;3043787;22;46102;-78
2022/10/27 00:12:10;;;;;;;;;4.50;4.00;;;;;15.20;74.84;101767.66;3027942;22;44668;-77
2022/10/27 00:13:21;;;;;;;;;3.50;3.50;;;;;15.19;75.03;101777.41;3032232;22;45464;-78
2022/10/27 00:14:31;;;;;;;;;3.00;3.00;;;;;15.21;75.23;101781.78;3043107;22;45211;-78
2022/10/27 00:15:41;;;;;;;;;4.00;4.00;;;;;15.17;75.03;101779.22;3043330;22;45356;-78
2022/10/27 00:16:53;;;;;;;;;1.00;1.00;;;;;15.19;74.90;101787.97;3027843;22;44642;-78
2022/10/27 00:18:08;;;;;;;;;3.50;3.50;;;;;15.17;75.10;101784.53;3032979;22;45622;-78
2022/10/27 00:19:20;;;;;;;;;1.00;1.00;;;;;15.18;75.25;101788.94;3044530;22;44635;-78
2022/10/27 00:20:30;;;;;;;;;4.50;4.50;;;;;15.17;74.92;101789.81;3027433;22;47983;-78
2022/10/27 00:21:41;;;;;;;;;5.00;3.00;;;;;15.18;75.15;101796.00;3017041;22;44622;-78
2022/10/27 00:22:53;;;;;;;;;2.75;2.75;;;;;15.18;75.19;101796.00;3032634;22;45281;-78
2022/10/27 00:24:04;;;;;;;;;3.00;3.00;;;;;15.17;75.06;101800.41;3042662;22;45088;-78
2022/10/27 00:25:14;;;;;;;;;3.25;3.00;;;;;15.17;75.21;101799.56;3043663;22;45134;-78
2022/10/27 00:26:25;;;;;;;;;4.75;3.25;;;;;15.17;75.24;101794.25;3044501;22;45176;-78
2022/10/27 00:27:35;;;;;;;;;2.50;2.00;;;;;15.15;74.85;101796.97;3027786;22;47998;-78
2022/10/27 00:28:46;;;;;;;;;3.25;3.25;;;;;15.16;75.25;101795.19;3033036;22;45132;-78
2022/10/27 00:29:56;;;;;;;;;6.75;3.00;;;;;15.17;75.20;101796.91;3044054;22;46106;-78
2022/10/27 00:31:12;;;;;;;;;4.25;4.00;;;;;15.17;75.10;101788.97;3042758;22;45292;-78
2022/10/27 00:32:23;;;;;;;;;3.25;3.25;;;;;15.16;74.87;101793.38;3043642;22;45298;-78
2022/10/27 00:33:33;;;;;;;;;4.25;4.00;;;;;15.16;75.10;101795.19;3042643;22;45156;-78
2022/10/27 00:34:43;;;;;;;;;3.00;3.00;;;;;15.15;75.00;101788.16;3043574;22;46090;-78
2022/10/27 00:35:54;;;;;;;;;4.00;3.00;;;;;15.16;74.93;101790.72;3044375;22;45211;-78
2022/10/27 00:37:04;;;;;;;;;4.00;3.00;;;;;15.15;75.27;101785.50;3044194;22;45154;-78
2022/10/27 00:38:15;;;;;;;;;2.75;2.75;;;;;15.14;75.23;101784.63;3044414;22;45208;-78
2022/10/27 00:39:25;;;;;;;;;2.00;2.00;;;;;15.14;74.93;101787.28;3044184;22;47204;-78
2022/10/27 00:40:36;;;;;;;;;3.00;3.00;;;;;15.14;75.10;101789.06;3044335;22;45217;-78
2022/10/27 00:41:47;;;;;;;;;4.00;3.25;;;;;15.11;75.04;101786.53;3042909;22;48025;-78
2022/10/27 00:42:57;;;;;;;;;3.00;3.00;;;;;15.13;75.06;101795.28;3043441;22;45259;-78
2022/10/27 00:44:26;;;;;;;;;4.50;3.00;;;;;15.13;75.03;101790.00;3043987;22;46283;-78
2022/10/27 00:45:36;;;;;;;;;2.75;2.75;;;;;15.11;74.89;101783.91;3028077;22;45205;-78
2022/10/27 00:46:47;;;;;;;;;2.00;2.00;;;;;15.12;75.00;101783.81;3032412;22;45142;-78
2022/10/27 00:47:57;;;;;;;;;3.25;3.25;;;;;15.10;75.21;101782.16;3042732;22;44638;-78
2022/10/27 00:49:14;;;;;;;;;4.00;3.00;;;;;15.09;75.04;101786.56;3043460;22;45396;-78
2022/10/27 00:50:25;;;;;;;;;4.25;3.00;;;;;15.09;75.11;101783.94;3044370;22;45195;-78
2022/10/27 00:51:46;;;;;;;;;4.25;4.00;;;;;15.09;74.80;101781.28;3044257;22;45465;-78
2022/10/27 00:52:59;;;;;;;;;1.00;1.00;;;;;15.12;74.72;101785.59;3044295;22;45301;-78
2022/10/27 00:54:11;;;;;;;;;4.00;3.00;;;;;15.12;74.98;101786.47;3043074;22;46787;-78
2022/10/27 00:55:25;;;;;;;;;2.75;2.25;;;;;15.12;74.95;101790.91;3044202;22;45184;-78
2022/10/27 00:56:36;;;;;;;;;3.00;3.00;;;;;15.12;74.85;101785.59;3044040;22;45118;-78
2022/10/27 00:57:49;;;;;;;;;4.50;4.50;;;;;15.13;74.97;101787.34;3027923;22;45121;-78
2022/10/27 00:59:01;;;;;;;;;4.00;2.00;;;;;15.12;74.96;101790.91;3032954;22;45639;-78
2022/10/27 01:00:11;;;;;;;;;4.50;3.00;;;;;15.10;74.84;101783.03;3044127;22;45305;-78
2022/10/27 01:01:22;;;;;;;;;3.75;3.25;;;;;15.11;74.95;101781.25;3043918;22;45648;-78
2022/10/27 01:02:34;;;;;;;;;3.25;3.00;;;;;15.10;75.05;101783.03;3027484;22;45167;-78
2022/10/27 01:03:45;;;;;;;;;2.00;2.00;;;;;15.10;75.04;101780.38;3032723;22;45554;-78
2022/10/27 01:05:10;;;;;;;;;3.00;2.75;;;;;15.14;75.12;101775.81;3044421;22;45226;-78
2022/10/27 01:06:21;;;;;;;;;3.00;3.00;;;;;15.15;74.91;101774.91;3027557;22;46954;-78
2022/10/27 01:07:32;;;;;;;;;2.50;2.50;;;;;15.16;75.02;101779.31;3016390;22;45318;-78
2022/10/27 01:08:43;;;;;;;;;2.00;2.00;;;;;15.17;74.99;101773.06;3016817;22;48370;-78
2022/10/27 01:09:54;;;;;;;;;3.00;3.00;;;;;15.15;75.23;101759.91;3017562;22;44527;-78
2022/10/27 01:11:05;;;;;;;;;1.00;0.00;;;;;15.17;75.23;101759.81;3032072;22;45231;-78
2022/10/27 01:12:15;;;;;;;;;3.25;2.50;;;;;15.17;74.78;101760.69;3044324;22;45137;-78
2022/10/27 01:13:26;;;;;;;;;3.25;2.50;;;;;15.18;75.06;101762.44;3043883;22;45972;-78
2022/10/27 01:14:36;;;;;;;;;3.00;3.00;;;;;15.19;75.15;101771.22;3042880;22;44585;-78
2022/10/27 01:16:22;;;;;;;;;2.75;2.75;;;;;15.20;75.21;101767.66;3027728;22;48040;-78
2022/10/27 01:18:00;;;;;;;;;5.50;3.50;;;;;15.18;74.91;101769.50;2979544;23;44715;-78
2022/10/27 01:19:49;;;;;;;;;2.00;2.00;;;;;15.17;75.43;101767.78;3027672;22;47440;-78
2022/10/27 01:21:09;;;;;;;;;3.00;3.00;;;;;15.18;74.91;101764.22;3040831;22;44608;-78
2022/10/27 01:22:40;;;;;;;;;3.00;3.00;;;;;15.17;74.81;101770.41;3027732;22;48358;-78
2022/10/27 01:24:12;;;;;;;;;1.25;1.25;;;;;15.15;75.13;101775.78;3037590;22;45251;-78
2022/10/27 01:25:46;;;;;;;;;1.75;1.75;;;;;15.13;75.00;101767.03;3027559;22;47953;-78
2022/10/27 01:27:01;;;;;;;;;3.00;3.00;;;;;15.13;74.92;101769.69;3037217;22;45132;-78
2022/10/27 01:28:40;;;;;;;;;3.00;3.00;;;;;15.13;75.10;101766.16;3027655;22;48372;-78
2022/10/27 01:29:56;;;;;;;;;3.00;3.00;;;;;15.12;74.87;101767.94;3023286;22;45241;-78
2022/10/27 01:31:10;;;;;;;;;3.25;3.00;;;;;15.12;75.23;101756.47;3032527;22;46504;-78
2022/10/27 01:32:41;;;;;;;;;4.00;3.00;;;;;15.12;75.06;101764.44;3043728;22;45235;-78
2022/10/27 01:34:19;;;;;;;;;3.00;3.00;;;;;15.10;74.84;101755.69;3043548;22;46214;-78
2022/10/27 01:35:44;;;;;;;;;3.75;3.75;;;;;15.08;75.05;101758.38;3044262;22;45326;-78
2022/10/27 01:37:14;;;;;;;;;2.75;2.75;;;;;15.09;75.02;101759.25;3044193;22;46491;-78
2022/10/27 01:38:31;;;;;;;;;3.00;2.00;;;;;15.09;75.19;101761.91;3042840;22;45189;-78
2022/10/27 01:40:07;;;;;;;;;4.75;3.75;;;;;15.08;74.88;101763.69;3027567;22;47961;-78
2022/10/27 01:41:33;;;;;;;;;3.25;2.75;;;;;15.09;74.93;101769.84;3036449;22;45295;-78
2022/10/27 01:42:56;;;;;;;;;3.50;3.50;;;;;15.06;75.12;101763.72;3044014;22;45326;-78
2022/10/27 01:44:13;;;;;;;;;5.25;3.00;;;;;15.05;74.81;101766.44;3044180;22;45211;-78
2022/10/27 01:45:28;;;;;;;;;2.75;2.75;;;;;15.05;74.94;101769.94;3027426;22;46115;-78
2022/10/27 01:46:39;;;;;;;;;3.00;3.00;;;;;15.05;74.63;101763.78;3033545;22;44677;-78
2022/10/27 01:47:51;;;;;;;;;5.00;5.00;;;;;15.04;74.87;101764.69;3043721;22;46475;-78
2022/10/27 01:49:07;;;;;;;;;3.25;3.25;;;;;15.04;74.80;101762.03;3044043;22;44567;-78
2022/10/27 01:50:18;;;;;;;;;3.00;3.00;;;;;15.02;74.70;101759.47;3043384;22;46352;-78
2022/10/27 01:51:29;;;;;;;;;4.25;3.50;;;;;15.03;75.08;101760.34;3027717;22;45221;-78
2022/10/27 01:52:46;;;;;;;;;5.50;4.00;;;;;15.03;74.82;101761.19;3032451;22;45274;-78
2022/10/27 01:53:57;;;;;;;;;6.50;4.75;;;;;15.03;74.71;101761.19;3027784;22;44551;-78
2022/10/27 01:55:29;;;;;;;;;2.75;2.75;;;;;15.01;74.83;101763.03;3032476;22;45372;-78
2022/10/27 01:56:52;;;;;;;;;4.00;4.00;;;;;15.03;74.89;101763.84;3044338;22;45234;-78
2022/10/27 01:58:28;;;;;;;;;3.00;3.00;;;;;15.03;74.71;101761.19;3026921;22;48203;-78
2022/10/27 02:00:04;;;;;;;;;2.25;2.25;;;;;15.02;74.82;101756.81;3038507;22;44731;-78
2022/10/27 02:01:47;;;;;;;;;3.00;3.00;;;;;15.00;74.86;101756.00;3042405;22;45443;-78
2022/10/27 02:03:12;;;;;;;;;4.00;4.00;;;;;14.98;75.06;101755.19;3043726;22;44581;-78
2022/10/27 02:04:47;;;;;;;;;3.75;2.50;;;;;14.98;75.08;101749.03;3027367;22;48516;-78
2022/10/27 02:06:30;;;;;;;;;4.00;2.75;;;;;14.97;74.90;101753.47;3038283;22;44624;-78
2022/10/27 02:07:57;;;;;;;;;3.75;3.00;;;;;14.96;75.26;101751.75;3044152;22;46153;-78
2022/10/27 02:09:13;;;;;;;;;4.50;3.00;;;;;14.95;75.12;101750.00;3043240;22;45203;-78
2022/10/27 05:35:49;;;;;;;;;4.50;4.00;;;;;14.28;75.51;101684.31;3025847;22;46305;-75
2022/10/27 05:37:00;;;;;;;;;4.00;4.00;;;;;14.27;75.34;101683.47;3026719;22;45588;-75
2022/10/27 05:38:10;;;;;;;;;4.75;4.00;;;;;14.26;75.31;101688.81;3028090;22;45340;-75
2022/10/27 05:39:21;;;;;;;;;7.25;5.00;;;;;14.27;75.21;101687.91;3027198;22;45123;-76
2022/10/27 05:40:33;;;;;;;;;7.00;4.00;;;;;14.26;75.05;101687.03;3028222;22;45201;-75
2022/10/27 05:41:43;;;;;;;;;5.00;4.00;;;;;14.28;75.37;101687.84;3028943;22;45172;-75
2022/10/27 05:42:54;;;;;;;;;6.75;6.00;;;;;14.26;75.33;101680.88;3028177;22;45215;-75
2022/10/27 05:44:05;;;;;;;;;7.50;5.25;;;;;14.25;75.25;101679.13;3028944;22;45113;-75
2022/10/27 05:45:15;;;;;;;;;5.00;4.00;;;;;14.25;75.26;101679.13;3028845;22;46070;-75
2022/10/27 05:46:25;;;;;;;;;5.00;5.00;;;;;14.26;75.22;101675.59;3028188;22;45252;-75
2022/10/27 05:47:36;;;;;;;;;4.75;4.00;;;;;14.27;75.15;101682.63;3028854;22;45284;-75
2022/10/27 05:48:46;;;;;;;;;8.00;5.25;;;;;14.26;75.40;101680.88;3028518;22;45220;-75
2022/10/27 05:49:56;;;;;;;;;4.75;4.75;;;;;14.27;75.21;101687.91;3026783;22;47114;-76
2022/10/27 05:51:07;;;;;;;;;4.75;4.75;;;;;14.27;75.34;101688.75;3031542;22;45145;-75
2022/10/27 05:52:17;;;;;;;;;6.25;6.00;;;;;14.26;75.26;101687.03;3038777;22;45389;-75
2022/10/27 05:53:27;;;;;;;;;3.50;2.25;;;;;14.28;75.37;101689.63;3027759;22;44715;-75
2022/10/27 05:54:38;;;;;;;;;5.00;4.00;;;;;14.27;75.10;101683.47;3028694;22;45518;-75
2022/10/27 05:55:51;;;;;;;;;7.50;5.50;;;;;14.30;75.42;101693.06;3029333;22;44625;-75
2022/10/27 05:57:02;;;;;;;;;9.50;7.25;;;;;14.29;75.31;101679.00;3042468;22;47406;-75
2022/10/27 05:58:12;;;;;;;;;7.25;5.00;;;;;14.32;75.52;101680.66;3040016;22;44575;-75
2022/10/27 05:59:23;;;;;;;;;9.25;5.00;;;;;14.33;75.25;101682.41;3029386;22;45408;-75
2022/10/27 06:00:35;;;;;;;;;5.75;4.25;;;;;14.35;75.38;101677.03;3027951;22;45260;-75
2022/10/27 06:01:45;;;;;;;;;8.50;7.00;;;;;14.37;75.54;101673.44;3016779;22;46924;-75
2022/10/27 06:03:00;;;;;;;;;8.00;5.25;;;;;14.41;75.34;101674.22;3017568;22;45238;-75
2022/10/27 06:04:11;;;;;;;;;5.25;5.25;;;;;14.40;75.48;101668.03;3028167;22;46454;-75
2022/10/27 06:05:21;;;;;;;;;5.25;5.25;;;;;14.45;75.51;101669.66;3028847;22;45084;-75
2022/10/27 06:06:31;;;;;;;;;8.75;6.25;;;;;14.46;75.40;101672.28;3028931;22;45443;-75
2022/10/27 06:07:42;;;;;;;;;5.00;4.50;;;;;14.50;75.57;101673.00;3029697;22;45082;-75
2022/10/27 06:08:52;;;;;;;;;7.75;5.00;;;;;14.50;75.56;101673.88;3028767;22;45628;-75
2022/10/27 06:10:03;;;;;;;;;6.25;5.25;;;;;14.53;75.10;101662.34;3027280;22;45619;-75
2022/10/27 06:11:13;;;;;;;;;7.50;5.25;;;;;14.54;75.31;101665.84;3027457;22;47500;-75
2022/10/27 06:12:24;;;;;;;;;4.25;4.00;;;;;14.56;75.17;101667.53;3016281;22;45138;-75
2022/10/27 06:13:34;;;;;;;;;5.50;4.25;;;;;14.58;75.36;101667.47;3015304;22;46708;-75
2022/10/27 06:14:44;;;;;;;;;6.75;5.00;;;;;14.59;75.11;101671.84;3028351;22;45193;-75
2022/10/27 06:15:55;;;;;;;;;5.50;5.00;;;;;14.60;75.48;101663.84;3028625;22;45188;-75
2022/10/27 06:17:05;;;;;;;;;4.00;4.00;;;;;14.60;75.21;101658.56;3029296;22;45290;-75
2022/10/27 06:18:15;;;;;;;;;4.25;4.25;;;;;14.62;75.08;101661.13;3027610;22;51999;-75
2022/10/27 06:19:25;;;;;;;;;5.25;4.25;;;;;14.62;75.14;101661.13;3028524;22;45411;-75
2022/10/27 06:20:36;;;;;;;;;6.50;4.75;;;;;14.62;75.31;101667.28;3028720;22;46373;-75
2022/10/27 06:21:46;;;;;;;;;4.75;4.75;;;;;14.62;75.38;101672.59;3029231;22;45407;-76
2022/10/27 06:22:57;;;;;;;;;8.00;4.50;;;;;14.65;75.14;101665.44;3027671;22;45547;-75
2022/10/27 06:24:07;;;;;;;;;7.00;5.25;;;;;14.67;75.42;101667.13;3027920;22;45230;-76
2022/10/27 06:25:18;;;;;;;;;6.00;5.75;;;;;14.68;75.31;101663.56;3027055;22;46056;-76
2022/10/27 06:26:28;;;;;;;;;5.00;5.00;;;;;14.70;75.46;101658.22;3025922;22;45245;-75
2022/10/27 06:27:38;;;;;;;;;5.00;5.00;;;;;14.70;75.38;101652.94;3014971;22;47148;-75
2022/10/27 06:28:49;;;;;;;;;5.50;5.50;;;;;14.72;75.41;101656.38;3026838;22;44634;-75
2022/10/27 06:30:00;;;;;;;;;7.50;6.75;;;;;14.74;75.41;101651.91;3026000;22;46840;-75
2022/10/27 06:31:10;;;;;;;;;8.25;6.75;;;;;14.78;75.52;101650.88;3027460;22;45133;-75
2022/10/27 06:32:20;;;;;;;;;12.75;7.50;;;;;14.79;75.47;101641.16;3027216;22;45213;-75
2022/10/27 06:33:31;;;;;;;;;7.25;6.50;;;;;14.82;75.38;101643.69;3027490;22;44551;-75
2022/10/27 06:34:41;;;;;;;;;5.25;5.00;;;;;14.84;75.31;101648.00;3027437;22;45246;-75
2022/10/27 06:35:51;;;;;;;;;9.75;7.50;;;;;14.87;75.29;101643.53;3019781;22;45149;-75
2022/10/27 06:37:05;;;;;;;;;6.50;6.25;;;;;14.91;75.32;101639.88;3012579;22;45432;-75
2022/10/27 06:38:15;;;;;;;;;5.00;5.00;;;;;14.91;75.32;101630.16;3012411;22;45211;-76
2022/10/27 06:39:27;;;;;;;;;7.50;6.00;;;;;14.94;75.26;101635.31;3012062;22;46843;-75
2022/10/27 06:40:38;;;;;;;;;6.00;5.00;;;;;14.95;75.01;101639.72;3012668;22;44654;-75
2022/10/27 06:41:48;;;;;;;;;6.00;5.25;;;;;14.97;75.25;101642.28;2996021;22;46901;-75
2022/10/27 06:42:58;;;;;;;;;7.75;5.25;;;;;14.98;75.23;101640.50;3001393;22;45271;-75
2022/10/27 06:44:09;;;;;;;;;5.25;5.25;;;;;15.00;75.10;101642.19;3012138;22;46131;-75
2022/10/27 06:45:19;;;;;;;;;6.00;5.00;;;;;14.99;74.96;101634.31;3012969;22;45671;-75
2022/10/27 06:46:29;;;;;;;;;4.00;2.00;;;;;15.01;75.08;101638.63;3014458;22;46170;-75
2022/10/27 06:47:40;;;;;;;;;7.25;6.00;;;;;15.03;74.80;101641.19;3012697;22;44621;-75
2022/10/27 06:48:50;;;;;;;;;9.25;6.00;;;;;15.03;74.92;101643.84;3008987;22;46984;-75
2022/10/27 06:50:01;;;;;;;;;7.00;6.00;;;;;15.03;74.88;101642.06;3000369;22;44717;-76
2022/10/27 06:51:11;;;;;;;;;9.75;6.00;;;;;15.02;75.20;101637.69;2997215;22;48002;-75
2022/10/27 06:52:21;;;;;;;;;6.25;5.25;;;;;15.03;74.37;101634.13;3001632;22;44603;-75
2022/10/27 06:53:32;;;;;;;;;7.00;6.00;;;;;15.03;74.62;101633.25;3012965;22;45420;-75
2022/10/27 06:54:42;;;;;;;;;7.75;5.75;;;;;15.03;74.46;101636.78;2997511;22;45162;-75
2022/10/27 06:55:54;;;;;;;;;6.00;6.00;;;;;15.02;74.58;101640.34;3001803;22;45272;-75
2022/10/27 06:57:05;;;;;;;;;10.50;7.25;;;;;15.01;74.68;101632.47;3012915;22;44594;-75
2022/10/27 06:58:15;;;;;;;;;6.50;6.50;;;;;15.01;74.49;101638.63;3013272;22;45581;-75
2022/10/27 06:59:26;;;;;;;;;6.00;5.25;;;;;15.01;74.59;101641.28;2995567;22;45304;-75
2022/10/27 07:00:36;;;;;;;;;6.75;3.75;;;;;15.01;74.47;101640.41;3002529;22;45272;-74
2022/10/27 07:01:47;;;;;;;;;7.75;5.00;;;;;14.99;74.53;101637.78;2998055;22;45526;-74
2022/10/27 07:02:57;;;;;;;;;6.00;6.00;;;;;14.99;74.69;101640.44;3002557;22;46123;-74
2022/10/27 07:04:07;;;;;;;;;7.00;6.50;;;;;15.00;74.25;101639.53;2997759;22;45382;-75
2022/10/27 07:05:18;;;;;;;;;4.00;4.00;;;;;15.00;74.63;101652.75;2999975;22;45424;-74
2022/10/27 07:06:28;;;;;;;;;6.50;4.50;;;;;15.00;74.51;101655.41;2997465;22;45198;-74
2022/10/27 07:07:39;;;;;;;;;5.25;4.00;;;;;15.00;74.56;101655.41;3001581;22;46141;-74
2022/10/27 07:08:51;;;;;;;;;7.75;5.50;;;;;15.00;74.53;101651.91;3012398;22;44634;-74
2022/10/27 07:10:03;;;;;;;;;5.50;4.00;;;;;15.00;74.60;101660.72;3012486;22;46111;-74
2022/10/27 07:11:14;;;;;;;;;9.25;7.00;;;;;14.99;74.39;101653.66;2997603;22;44627;-74
2022/10/27 07:12:25;;;;;;;;;7.00;4.25;;;;;15.00;74.47;101668.66;3002391;22;46108;-74
2022/10/27 07:13:35;;;;;;;;;5.25;4.75;;;;;14.98;74.54;101662.56;3014221;22;45262;-74
2022/10/27 07:14:46;;;;;;;;;4.25;4.00;;;;;14.98;74.69;101662.56;3014272;22;45317;-75
2022/10/27 07:15:56;;;;;;;;;1.50;0.00;;;;;14.97;74.62;101674.03;3012166;22;45231;-75
2022/10/27 07:17:06;;;;;;;;;6.00;6.00;;;;;14.98;74.70;101673.16;2995135;22;46937;-75
2022/10/27 07:18:16;;;;;;;;;5.50;5.00;;;;;14.98;74.67;101678.44;2987997;22;44624;-75
2022/10/27 07:19:27;;;;;;;;;5.25;4.50;;;;;15.01;74.87;101677.47;3002142;22;45517;-75
2022/10/27 07:20:38;;;;;;;;;5.25;5.00;;;;;15.05;74.96;101679.06;3013235;22;44718;-75
2022/10/27 07:21:49;;;;;;;;;5.25;5.25;;;;;15.09;74.95;101679.84;3013276;22;45404;-75
2022/10/27 07:23:00;;;;;;;;;5.00;4.75;;;;;15.14;74.82;101676.06;2998370;22;44555;-75
2022/10/27 07:24:10;;;;;;;;;5.50;4.00;;;;;15.21;75.03;101674.03;2987916;22;46282;-75
2022/10/27 07:25:21;;;;;;;;;9.50;6.50;;;;;15.28;74.67;101680.00;3003001;22;45110;-75
2022/10/27 07:26:31;;;;;;;;;6.25;4.50;;;;;15.33;74.90;101682.47;2997887;22;47812;-75
2022/10/27 07:27:46;;;;;;;;;5.00;3.50;;;;;15.39;74.68;101682.22;3002797;22;45144;-75
2022/10/27 07:28:56;;;;;;;;;7.00;4.00;;;;;15.45;74.75;101682.00;3014081;22;45331;-75
2022/10/27 07:30:07;;;;;;;;;3.00;3.00;;;;;15.52;74.41;101683.50;3014519;22;45357;-75
2022/10/27 07:31:17;;;;;;;;;8.00;5.00;;;;;15.63;74.62;101682.22;2995719;22;46901;-75
2022/10/27 07:32:28;;;;;;;;;4.25;4.25;;;;;15.73;74.04;101686.19;3000852;22;45226;-74
2022/10/27 07:33:38;;;;;;;;;5.25;5.25;;;;;15.82;74.42;101686.75;2997805;22;47012;-75
2022/10/27 07:34:48;;;;;;;;;3.75;3.75;;;;;15.91;73.50;101701.44;3002219;22;45256;-75
2022/10/27 07:35:59;;;;;;;;;7.75;4.00;;;;;15.96;73.48;101702.09;3013196;22;45271;-75
2022/10/27 07:37:09;;;;;;;;;5.00;4.00;;;;;15.98;73.59;101703.78;3041409;22;45274;-75
2022/10/27 07:38:19;;;;;;;;;4.50;4.25;;;;;16.06;73.79;101710.59;3042759;22;46202;-75
2022/10/27 07:39:30;;;;;;;;;6.00;4.00;;;;;16.11;72.71;101716.56;3042245;22;44609;-75
2022/10/27 07:40:40;;;;;;;;;4.00;4.00;;;;;16.18;73.04;101722.47;3043205;22;45177;-75
2022/10/27 07:41:50;;;;;;;;;5.50;4.00;;;;;16.27;72.73;101726.56;3044101;22;45069;-75
2022/10/27 07:43:01;;;;;;;;;4.50;4.25;;;;;16.34;72.67;101733.31;3027569;22;46568;-75
2022/10/27 07:44:12;;;;;;;;;5.00;5.00;;;;;16.42;72.91;101725.06;3032556;22;44547;-75
2022/10/27 07:45:24;;;;;;;;;5.25;3.75;;;;;16.50;72.45;101730.00;3043359;22;45216;-75
2022/10/27 07:46:34;;;;;;;;;2.75;2.50;;;;;16.56;72.39;101732.41;3044135;22;44547;-75
2022/10/27 07:47:49;;;;;;;;;5.75;5.00;;;;;16.64;71.90;101734.75;3039946;22;47004;-75
2022/10/27 07:48:59;;;;;;;;;5.25;4.00;;;;;16.71;71.75;101714.97;3026352;22;45261;-75
2022/10/27 07:50:10;;;;;;;;;5.25;4.00;;;;;16.80;71.90;101712.81;3012724;22;45903;-75
2022/10/27 07:51:20;;;;;;;;;5.25;4.25;;;;;16.85;71.46;101705.53;3030000;22;45318;-75
2022/10/27 07:52:35;;;;;;;;;4.50;4.00;;;;;16.93;71.68;101703.41;3025930;22;47046;-75
2022/10/27 07:53:49;;;;;;;;;5.25;5.00;;;;;16.98;71.26;101709.38;3032127;22;45672;-75
2022/10/27 07:54:59;;;;;;;;;7.25;3.00;;;;;17.03;71.29;101725.09;3042024;22;45477;-75
2022/10/27 07:56:09;;;;;;;;;3.50;3.50;;;;;17.08;71.52;101730.19;3025905;22;45580;-75
2022/10/27 07:57:20;;;;;;;;;5.00;3.50;;;;;17.12;71.41;101733.56;3030601;22;45363;-75
2022/10/27 07:58:30;;;;;;;;;5.25;5.00;;;;;17.15;71.07;101728.13;3025754;22;45275;-75
2022/10/27 07:59:40;;;;;;;;;5.00;3.25;;;;;17.19;70.98;101732.38;3014122;22;48318;-75
2022/10/27 08:00:51;;;;;;;;;4.75;4.75;;;;;17.20;70.88;101716.41;3014323;22;45213;-75
2022/10/27 08:02:01;;;;;;;;;5.50;5.50;;;;;17.23;70.09;101710.09;3029838;22;47794;-75
2022/10/27 08:03:28;;;;;;;;;4.00;4.00;;;;;17.26;70.50;101704.59;3041607;22;44539;-75
2022/10/27 08:04:38;;;;;;;;;6.25;3.75;;;;;17.29;70.42;101704.47;3042127;22;46132;-75
2022/10/27 08:05:49;;;;;;;;;6.00;4.00;;;;;17.34;70.83;101706.91;3041980;22;45180;-75
2022/10/27 08:06:59;;;;;;;;;5.75;5.25;;;;;17.37;70.73;101705.91;3041742;22;46385;-75
2022/10/27 08:08:10;;;;;;;;;6.25;4.25;;;;;17.39;70.71;101702.25;3042832;22;45757;-75
2022/10/27 08:09:21;;;;;;;;;4.25;4.25;;;;;17.43;70.62;101710.97;3042278;22;46350;-75
2022/10/27 08:10:34;;;;;;;;;7.00;4.25;;;;;17.45;70.46;101702.91;3041874;22;45171;-75
2022/10/27 08:11:44;;;;;;;;;5.00;5.00;;;;;17.47;70.40;101699.25;3042045;22;45282;-75
2022/10/27 08:12:55;;;;;;;;;6.00;6.00;;;;;17.50;70.19;101707.06;3025257;22;45177;-75
2022/10/27 08:14:05;;;;;;;;;3.50;3.50;;;;;17.52;70.29;101702.53;3029752;22;47142;-75
2022/10/27 08:15:16;;;;;;;;;6.00;5.25;;;;;17.56;70.23;101705.06;3041216;22;45284;-75
2022/10/27 08:16:26;;;;;;;;;5.00;3.00;;;;;17.58;69.89;101705.84;3043547;22;45301;-75
2022/10/27 08:17:38;;;;;;;;;5.00;4.75;;;;;17.59;69.96;101705.75;3025846;22;45210;-75
2022/10/27 08:18:48;;;;;;;;;6.25;3.50;;;;;17.63;70.11;101707.34;3030258;22;46763;-75
2022/10/27 08:19:59;;;;;;;;;4.50;4.00;;;;;17.67;69.99;101708.06;3041429;22;45331;-75
2022/10/27 08:21:09;;;;;;;;;4.75;4.75;;;;;17.66;69.50;101704.53;3041920;22;45274;-75
2022/10/27 08:22:19;;;;;;;;;7.00;4.00;;;;;17.70;69.80;101715.91;3042066;22;45317;-75
2022/10/27 08:23:30;;;;;;;;;5.25;5.25;;;;;17.70;69.48;101717.69;3025804;22;47004;-75
2022/10/27 08:24:41;;;;;;;;;7.00;6.25;;;;;17.71;69.49;101720.25;3030683;22;45248;-75
2022/10/27 08:25:51;;;;;;;;;6.00;4.50;;;;;17.72;69.56;101722.00;3041326;22;45185;-75
2022/10/27 08:27:02;;;;;;;;;4.50;4.25;;;;;17.73;69.62;101720.22;3041409;22;44593;-75
2022/10/27 08:28:13;;;;;;;;;7.00;5.50;;;;;17.75;69.19;101724.50;3042170;22;45530;-75
2022/10/27 08:29:25;;;;;;;;;6.50;5.00;;;;;17.78;69.25;101715.50;3042294;22;45595;-75
2022/10/27 08:30:35;;;;;;;;;6.50;5.00;;;;;17.79;69.52;101716.38;3042201;22;46270;-75
2022/10/27 08:31:46;;;;;;;;;6.00;4.75;;;;;17.77;69.05;101720.00;3041662;22;45274;-76
2022/10/27 08:32:58;;;;;;;;;5.75;5.00;;;;;17.80;69.47;101723.44;3041712;22;46319;-76
2022/10/27 08:34:08;;;;;;;;;7.50;6.50;;;;;17.77;69.44;101727.97;3041648;22;45283;-75
2022/10/27 08:35:18;;;;;;;;;9.25;7.00;;;;;17.76;68.86;101718.25;3041746;22;45890;-76
2022/10/27 08:36:31;;;;;;;;;9.00;5.00;;;;;17.76;69.11;101723.56;3042235;22;45259;-75
2022/10/27 08:37:41;;;;;;;;;8.50;5.50;;;;;17.76;69.14;101728.88;3041960;22;45568;-75
2022/10/27 08:38:52;;;;;;;;;7.75;6.75;;;;;17.78;69.12;101731.47;3041913;22;44549;-75
2022/10/27 08:40:02;;;;;;;;;5.25;5.25;;;;;17.80;69.20;101728.75;3041929;22;45096;-75
2022/10/27 08:41:25;;;;;;;;;10.50;7.50;;;;;17.82;69.49;101726.88;3041580;22;45266;-75
2022/10/27 08:43:01;;;;;;;;;9.25;5.25;;;;;17.84;69.46;101728.53;3025549;22;48153;-75
2022/10/27 08:44:33;;;;;;;;;8.50;6.00;;;;;17.89;68.98;101733.63;3036022;22;44551;-75
2022/10/27 08:46:12;;;;;;;;;6.00;5.25;;;;;17.92;68.73;101728.16;3026818;22;46985;-75
2022/10/27 08:47:25;;;;;;;;;7.00;6.00;;;;;17.96;68.85;101737.69;3038722;22;45152;-75
2022/10/27 08:48:36;;;;;;;;;9.00;6.75;;;;;17.99;68.60;101728.72;3025648;22;48098;-75
2022/10/27 08:49:50;;;;;;;;;6.75;5.00;;;;;18.00;68.53;101731.28;3031489;22;45283;-75
2022/10/27 08:51:01;;;;;;;;;6.00;4.75;;;;;18.04;68.38;101728.47;3041365;22;45253;-75
2022/10/27 08:52:30;;;;;;;;;6.25;6.00;;;;;18.04;68.93;101731.16;3027447;22;45184;-75
2022/10/27 08:53:45;;;;;;;;;5.00;4.75;;;;;18.06;68.24;101731.94;3034907;22;45341;-75
2022/10/27 08:55:23;;;;;;;;;6.00;6.00;;;;;18.06;68.50;101734.59;3043237;22;44774;-75
2022/10/27 08:56:40;;;;;;;;;5.25;5.00;;;;;18.05;68.76;101728.41;3030227;22;45539;-75
2022/10/27 08:58:14;;;;;;;;;6.50;4.75;;;;;18.04;69.02;101726.69;3025696;22;45212;-76
2022/10/27 08:59:26;;;;;;;;;5.50;5.50;;;;;18.02;69.10;101727.69;3034592;22;45476;-75
2022/10/27 09:00:49;;;;;;;;;5.75;5.00;;;;;18.03;68.66;101726.75;3027155;22;44647;-75
2022/10/27 09:02:25;;;;;;;;;6.00;5.25;;;;;18.02;69.07;101728.56;3018796;22;47143;-75
2022/10/27 09:03:41;;;;;;;;;5.00;4.50;;;;;18.03;68.45;101729.41;2977734;22;45384;-76
2022/10/27 09:05:00;;;;;;;;;5.50;5.00;;;;;18.03;68.82;101727.63;3041592;22;46378;-75
2022/10/27 09:06:30;;;;;;;;;7.75;5.50;;;;;18.05;69.14;101722.25;3026619;22;45112;-75
2022/10/27 09:08:14;;;;;;;;;7.00;6.00;;;;;18.05;68.44;101730.22;3036622;22;45328;-75
2022/10/27 09:09:38;;;;;;;;;7.00;6.25;;;;;18.05;68.93;101731.06;3027510;22;44539;-75